createdAt,value
2019-05-01T00:00:58.707Z,9.20
2019-05-01T00:03:49.023Z,9.16
2019-05-01T00:06:24.325Z,9.20
2019-05-01T00:08:57.837Z,9.28
2019-05-01T00:11:31.403Z,9.31
2019-05-01T00:14:05.632Z,9.25
2019-05-01T00:16:39.690Z,9.30
2019-05-01T00:19:13.305Z,9.28
2019-05-01T00:21:46.914Z,9.29
2019-05-01T00:24:20.457Z,9.21
2019-05-01T00:26:53.995Z,9.12
2019-05-01T00:29:27.558Z,8.99
2019-05-01T00:32:01.241Z,8.93
2019-05-01T00:34:34.824Z,8.91
2019-05-01T00:37:08.302Z,8.71
2019-05-01T00:39:41.858Z,8.69
2019-05-01T00:42:18.133Z,8.68
2019-05-01T00:44:51.700Z,8.66
2019-05-01T00:47:25.553Z,8.62
2019-05-01T00:49:59.147Z,8.48
2019-05-01T00:52:32.625Z,8.35
2019-05-01T00:55:25.094Z,8.26
2019-05-01T00:58:12.684Z,8.24
2019-05-01T01:00:53.916Z,8.09
2019-05-01T01:03:27.636Z,7.96
2019-05-01T01:06:01.445Z,7.89
2019-05-01T01:08:34.989Z,7.79
2019-05-01T01:11:08.502Z,7.66
2019-05-01T01:13:42.081Z,7.64
2019-05-01T01:16:15.619Z,7.51
2019-05-01T01:18:49.182Z,7.53
2019-05-01T01:21:22.787Z,7.47
2019-05-01T01:23:57.575Z,7.42
2019-05-01T01:26:31.179Z,7.47
2019-05-01T01:29:04.817Z,7.54
2019-05-01T01:31:38.412Z,7.45
2019-05-01T01:34:12.107Z,7.45
2019-05-01T01:36:45.637Z,7.42
2019-05-01T01:39:19.242Z,7.31
2019-05-01T01:41:52.917Z,7.21
2019-05-01T01:44:28.189Z,7.13
2019-05-01T01:47:02.222Z,7.11
2019-05-01T01:49:35.852Z,7.10
2019-05-01T01:52:09.465Z,7.06
2019-05-01T01:54:43.102Z,6.98
2019-05-01T01:57:17.012Z,6.92
2019-05-01T01:59:51.166Z,7.00
2019-05-01T02:02:32.500Z,6.91
2019-05-01T02:05:08.782Z,6.95
2019-05-01T02:07:42.628Z,7.00
2019-05-01T02:10:16.373Z,6.97
2019-05-01T02:12:49.984Z,6.91
2019-05-01T02:15:23.638Z,6.85
2019-05-01T02:17:57.274Z,6.89
2019-05-01T02:20:31.063Z,6.86
2019-05-01T02:23:04.662Z,6.86
2019-05-01T02:25:40.276Z,6.89
2019-05-01T02:28:22.590Z,6.88
2019-05-01T02:31:06.779Z,6.80
2019-05-01T02:33:43.745Z,6.76
2019-05-01T02:36:18.950Z,6.70
2019-05-01T02:38:55.363Z,6.70
2019-05-01T02:41:35.111Z,6.57
2019-05-01T02:44:20.484Z,6.52
2019-05-01T02:46:57.330Z,6.41
2019-05-01T02:49:39.615Z,6.41
2019-05-01T02:52:14.380Z,6.41
2019-05-01T02:54:49.470Z,6.27
2019-05-01T02:57:24.405Z,6.15
2019-05-01T02:59:58.467Z,6.08
2019-05-01T03:02:32.117Z,5.99
2019-05-01T03:05:07.419Z,6.06
2019-05-01T03:07:42.291Z,6.02
2019-05-01T03:10:16.707Z,6.05
2019-05-01T03:12:52.001Z,6.13
2019-05-01T03:15:28.635Z,6.10
2019-05-01T03:18:16.328Z,6.04
2019-05-01T03:20:51.572Z,6.02
2019-05-01T03:23:29.522Z,6.02
2019-05-01T03:26:03.898Z,5.99
2019-05-01T03:28:38.437Z,6.02
2019-05-01T03:31:12.259Z,5.93
2019-05-01T03:33:45.838Z,5.96
2019-05-01T03:36:19.671Z,5.86
2019-05-01T03:38:53.496Z,5.75
2019-05-01T03:41:27.402Z,5.76
2019-05-01T03:44:01.338Z,5.91
2019-05-01T03:46:35.606Z,5.94
2019-05-01T03:49:09.444Z,5.99
2019-05-01T03:51:43.887Z,5.83
2019-05-01T03:54:17.652Z,5.78
2019-05-01T03:56:51.383Z,5.82
2019-05-01T03:59:25.005Z,5.77
2019-05-01T04:02:12.548Z,5.68
2019-05-01T04:04:47.187Z,5.55
2019-05-01T04:07:20.917Z,5.55
2019-05-01T04:09:54.656Z,5.56
2019-05-01T04:12:28.479Z,5.59
2019-05-01T04:15:02.214Z,5.58
2019-05-01T04:17:37.962Z,5.66
2019-05-01T04:20:11.770Z,5.68
2019-05-01T04:22:46.189Z,5.65
2019-05-01T04:25:20.152Z,5.64
2019-05-01T04:27:58.645Z,5.67
2019-05-01T04:30:36.083Z,5.70
2019-05-01T04:33:11.363Z,6.03
2019-05-01T04:35:53.017Z,6.27
2019-05-01T04:38:26.630Z,6.53
2019-05-01T04:41:00.980Z,6.70
2019-05-01T04:43:35.110Z,6.98
2019-05-01T04:46:08.736Z,7.25
2019-05-01T04:48:43.068Z,7.37
2019-05-01T04:51:17.191Z,8.00
2019-05-01T04:53:51.564Z,8.17
2019-05-01T04:56:25.416Z,8.34
2019-05-01T04:58:59.533Z,8.74
2019-05-01T05:01:35.316Z,8.74
2019-05-01T05:04:09.279Z,8.62
2019-05-01T05:06:42.916Z,8.98
2019-05-01T05:09:16.701Z,9.13
2019-05-01T05:11:53.220Z,9.15
2019-05-01T05:14:38.140Z,8.63
2019-05-01T05:17:16.246Z,9.09
2019-05-01T05:19:50.071Z,8.67
2019-05-01T05:22:24.504Z,8.02
2019-05-01T05:24:58.191Z,7.74
2019-05-01T05:27:33.291Z,7.85
2019-05-01T05:30:06.936Z,8.00
2019-05-01T05:32:43.470Z,8.19
2019-05-01T05:35:20.194Z,8.27
2019-05-01T05:37:57.445Z,8.34
2019-05-01T05:40:34.445Z,8.46
2019-05-01T05:43:09.719Z,8.48
2019-05-01T05:45:43.421Z,8.49
2019-05-01T05:48:17.410Z,8.52
2019-05-01T05:50:54.388Z,8.66
2019-05-01T05:53:33.051Z,8.65
2019-05-01T05:56:10.466Z,8.79
2019-05-01T05:58:48.144Z,8.83
2019-05-01T06:01:29.696Z,9.28
2019-05-01T06:04:26.327Z,10.75
2019-05-01T06:07:10.162Z,12.19
2019-05-01T06:10:00.292Z,11.93
2019-05-01T06:12:41.739Z,12.63
2019-05-01T06:15:36.641Z,12.59
2019-05-01T06:18:13.515Z,13.49
2019-05-01T06:20:57.046Z,14.35
2019-05-01T06:23:40.090Z,14.46
2019-05-01T06:26:37.552Z,14.59
2019-05-01T06:29:09.310Z,14.71
2019-05-01T06:31:43.248Z,14.24
2019-05-01T06:34:23.882Z,13.85
2019-05-01T06:36:55.078Z,13.65
2019-05-01T06:39:28.942Z,13.97
2019-05-01T06:42:04.666Z,14.07
2019-05-01T06:44:44.343Z,14.67
2019-05-01T06:47:20.778Z,13.52
2019-05-01T06:50:12.901Z,12.75
2019-05-01T06:52:46.716Z,13.54
2019-05-01T06:55:22.537Z,14.39
2019-05-01T06:57:56.099Z,14.34
2019-05-01T07:00:30.348Z,14.93
2019-05-01T07:03:06.052Z,15.06
2019-05-01T07:05:44.643Z,15.12
2019-05-01T07:08:24.611Z,15.37
2019-05-01T07:11:10.884Z,14.32
2019-05-01T07:13:55.633Z,13.76
2019-05-01T07:16:33.147Z,14.07
2019-05-01T07:19:10.770Z,14.77
2019-05-01T07:21:53.535Z,14.50
2019-05-01T07:27:00.656Z,15.88
2019-05-01T07:32:01.687Z,16.30
2019-05-01T07:34:33.867Z,17.09
2019-05-01T07:37:08.612Z,16.94
2019-05-01T07:39:44.852Z,16.56
2019-05-01T07:42:29.033Z,15.96
2019-05-01T07:45:23.069Z,16.66
2019-05-01T07:48:03.821Z,15.61
2019-05-01T07:50:33.073Z,16.37
2019-05-01T07:53:06.604Z,16.61
2019-05-01T07:55:40.179Z,17.31
2019-05-01T07:58:18.180Z,16.59
2019-05-01T08:00:58.217Z,15.01
2019-05-01T08:03:31.643Z,15.28
2019-05-01T08:06:05.166Z,16.34
2019-05-01T08:08:39.730Z,15.32
2019-05-01T08:11:13.736Z,16.23
2019-05-01T08:13:47.138Z,16.04
2019-05-01T08:16:20.560Z,15.00
2019-05-01T08:19:10.614Z,14.82
2019-05-01T08:21:48.400Z,14.62
2019-05-01T08:24:23.055Z,14.27
2019-05-01T08:26:56.994Z,14.91
2019-05-01T08:29:48.234Z,14.72
2019-05-01T08:32:26.185Z,14.65
2019-05-01T08:35:06.717Z,14.52
2019-05-01T08:37:40.139Z,14.94
2019-05-01T08:40:15.919Z,15.24
2019-05-01T08:42:49.514Z,15.24
2019-05-01T08:45:24.571Z,15.89
2019-05-01T08:48:16.119Z,16.37
2019-05-01T08:50:49.529Z,16.47
2019-05-01T08:53:23.313Z,15.66
2019-05-01T08:55:56.999Z,16.24
2019-05-01T08:58:30.437Z,16.29
2019-05-01T09:01:05.710Z,16.99
2019-05-01T09:03:39.170Z,16.73
2019-05-01T09:06:12.534Z,16.59
2019-05-01T09:08:45.981Z,15.73
2019-05-01T09:11:19.461Z,15.73
2019-05-01T09:13:54.697Z,16.45
2019-05-01T09:16:30.035Z,16.95
2019-05-01T09:19:03.196Z,16.59
2019-05-01T09:21:37.784Z,16.17
2019-05-01T09:24:11.956Z,16.86
2019-05-01T09:26:53.148Z,16.50
2019-05-01T09:29:28.283Z,16.11
2019-05-01T09:32:05.101Z,16.34
2019-05-01T09:34:37.372Z,16.65
2019-05-01T09:37:10.782Z,17.30
2019-05-01T09:39:47.044Z,17.89
2019-05-01T09:42:23.785Z,17.50
2019-05-01T09:44:54.675Z,17.44
2019-05-01T09:47:28.239Z,18.00
2019-05-01T09:50:01.780Z,18.46
2019-05-01T09:52:49.049Z,18.39
2019-05-01T09:55:24.936Z,18.50
2019-05-01T09:57:58.519Z,17.63
2019-05-01T10:00:33.171Z,17.87
2019-05-01T10:03:06.601Z,17.65
2019-05-01T10:05:42.946Z,17.55
2019-05-01T10:08:15.345Z,18.22
2019-05-01T10:10:48.835Z,18.34
2019-05-01T10:13:24.065Z,18.12
2019-05-01T10:15:57.635Z,17.73
2019-05-01T10:18:31.052Z,18.34
2019-05-01T10:21:04.660Z,18.65
2019-05-01T10:23:38.067Z,18.61
2019-05-01T10:26:13.147Z,18.79
2019-05-01T10:28:51.643Z,18.58
2019-05-01T10:31:46.575Z,19.15
2019-05-01T10:34:28.655Z,19.13
2019-05-01T10:37:02.136Z,18.34
2019-05-01T10:39:35.547Z,18.09
2019-05-01T10:42:08.975Z,18.15
2019-05-01T10:44:42.387Z,17.90
2019-05-01T10:47:15.884Z,18.69
2019-05-01T10:49:49.348Z,18.19
2019-05-01T10:52:22.786Z,18.51
2019-05-01T10:54:56.187Z,18.54
2019-05-01T10:57:29.881Z,18.95
2019-05-01T11:00:04.870Z,18.66
2019-05-01T11:02:38.319Z,18.97
2019-05-01T11:05:11.960Z,18.83
2019-05-01T11:07:45.376Z,18.60
2019-05-01T11:10:18.854Z,19.32
2019-05-01T11:12:52.268Z,19.43
2019-05-01T11:15:25.685Z,19.61
2019-05-01T11:17:59.182Z,19.21
2019-05-01T11:20:32.643Z,19.46
2019-05-01T11:23:06.208Z,19.42
2019-05-01T11:25:39.793Z,19.74
2019-05-01T11:28:13.289Z,19.78
2019-05-01T11:30:46.690Z,19.41
2019-05-01T11:33:34.025Z,19.09
2019-05-01T11:36:18.160Z,19.60
2019-05-01T11:38:53.235Z,19.86
2019-05-01T11:41:31.305Z,20.05
2019-05-01T11:44:05.190Z,20.17
2019-05-01T11:46:38.589Z,19.42
2019-05-01T11:49:12.008Z,19.73
2019-05-01T11:51:45.415Z,19.79
2019-05-01T11:54:18.920Z,20.25
2019-05-01T11:56:52.386Z,20.33
2019-05-01T11:59:25.822Z,20.45
2019-05-01T12:02:02.284Z,19.87
2019-05-01T12:04:34.446Z,19.41
2019-05-01T12:07:07.853Z,19.04
2019-05-01T12:09:41.293Z,18.77
2019-05-01T12:12:16.361Z,19.37
2019-05-01T12:14:49.773Z,19.90
2019-05-01T12:17:27.214Z,19.80
2019-05-01T12:20:00.628Z,19.68
2019-05-01T12:22:34.033Z,20.01
2019-05-01T12:25:07.805Z,19.72
2019-05-01T12:27:41.212Z,19.73
2019-05-01T12:30:16.449Z,19.40
2019-05-01T12:32:49.858Z,20.39
2019-05-01T12:35:23.379Z,20.63
2019-05-01T12:37:58.471Z,20.70
2019-05-01T12:40:31.967Z,20.67
2019-05-01T12:43:05.421Z,20.83
2019-05-01T12:45:38.935Z,20.84
2019-05-01T12:48:12.349Z,20.94
2019-05-01T12:50:47.421Z,21.03
2019-05-01T12:53:22.455Z,21.12
2019-05-01T12:56:13.282Z,20.65
2019-05-01T12:58:47.673Z,20.48
2019-05-01T13:01:21.167Z,20.10
2019-05-01T13:03:54.558Z,20.18
2019-05-01T13:06:27.997Z,20.09
2019-05-01T13:09:01.474Z,21.03
2019-05-01T13:11:34.951Z,21.22
2019-05-01T13:14:08.367Z,21.12
2019-05-01T13:16:41.809Z,21.31
2019-05-01T13:19:15.213Z,20.00
2019-05-01T13:21:48.727Z,19.75
2019-05-01T13:24:22.129Z,19.61
2019-05-01T13:27:02.932Z,20.20
2019-05-01T13:29:41.020Z,19.70
2019-05-01T13:32:22.198Z,19.93
2019-05-01T13:34:55.668Z,19.63
2019-05-01T13:37:29.100Z,20.22
2019-05-01T13:40:02.596Z,20.86
2019-05-01T13:42:36.145Z,21.28
2019-05-01T13:45:09.975Z,20.55
2019-05-01T13:47:43.386Z,21.00
2019-05-01T13:50:17.037Z,21.09
2019-05-01T13:52:50.576Z,20.72
2019-05-01T13:55:24.223Z,20.09
2019-05-01T13:57:57.671Z,20.13
2019-05-01T14:00:31.076Z,20.19
2019-05-01T14:03:04.544Z,19.92
2019-05-01T14:05:37.930Z,19.73
2019-05-01T14:08:11.337Z,19.81
2019-05-01T14:10:44.743Z,19.81
2019-05-01T14:13:18.160Z,19.66
2019-05-01T14:15:51.578Z,19.50
2019-05-01T14:18:24.992Z,19.59
2019-05-01T14:21:00.053Z,19.55
2019-05-01T14:23:35.110Z,19.71
2019-05-01T14:26:09.088Z,19.72
2019-05-01T14:28:42.538Z,19.48
2019-05-01T14:31:16.000Z,19.56
2019-05-01T14:33:49.512Z,19.48
2019-05-01T14:36:22.907Z,19.67
2019-05-01T14:38:56.357Z,19.85
2019-05-01T14:41:29.917Z,19.57
2019-05-01T14:44:03.598Z,19.74
2019-05-01T14:46:36.982Z,19.66
2019-05-01T14:49:10.493Z,19.60
2019-05-01T14:51:43.970Z,19.58
2019-05-01T14:54:17.449Z,19.72
2019-05-01T14:56:50.852Z,20.16
2019-05-01T14:59:24.348Z,20.23
2019-05-01T15:01:57.751Z,20.44
2019-05-01T15:04:31.188Z,20.44
2019-05-01T15:07:04.677Z,20.66
2019-05-01T15:09:38.185Z,20.54
2019-05-01T15:12:11.612Z,20.56
2019-05-01T15:14:52.108Z,20.95
2019-05-01T15:17:27.157Z,20.67
2019-05-01T15:20:02.222Z,20.79
2019-05-01T15:22:35.641Z,20.70
2019-05-01T15:25:09.311Z,20.56
2019-05-01T15:27:42.871Z,21.07
2019-05-01T15:30:18.185Z,21.12
2019-05-01T15:32:51.752Z,21.33
2019-05-01T15:35:25.127Z,20.73
2019-05-01T15:37:58.530Z,20.62
2019-05-01T15:40:33.621Z,20.81
2019-05-01T15:43:26.504Z,20.68
2019-05-01T15:45:59.944Z,20.99
2019-05-01T15:48:33.368Z,20.83
2019-05-01T15:51:06.776Z,20.80
2019-05-01T15:53:40.199Z,21.64
2019-05-01T15:56:13.696Z,23.18
2019-05-01T15:58:47.119Z,23.63
2019-05-01T16:01:20.537Z,23.44
2019-05-01T16:03:53.950Z,24.20
2019-05-01T16:06:27.502Z,22.72
2019-05-01T16:09:01.223Z,23.33
2019-05-01T16:11:42.966Z,23.78
2019-05-01T16:14:16.517Z,23.26
2019-05-01T16:16:49.926Z,23.12
2019-05-01T16:19:23.325Z,23.34
2019-05-01T16:21:56.736Z,23.79
2019-05-01T16:24:30.164Z,23.38
2019-05-01T16:27:04.219Z,24.16
2019-05-01T16:29:37.640Z,24.32
2019-05-01T16:32:11.260Z,24.17
2019-05-01T16:34:44.710Z,23.09
2019-05-01T16:37:18.200Z,23.01
2019-05-01T16:39:55.929Z,23.10
2019-05-01T16:42:31.002Z,25.14
2019-05-01T16:45:06.591Z,24.41
2019-05-01T16:47:40.023Z,23.25
2019-05-01T16:50:13.671Z,23.34
2019-05-01T16:52:47.094Z,23.72
2019-05-01T16:55:20.559Z,24.39
2019-05-01T16:57:53.988Z,22.92
2019-05-01T17:00:47.170Z,23.20
2019-05-01T17:03:22.338Z,23.84
2019-05-01T17:05:57.557Z,23.83
2019-05-01T17:08:48.512Z,24.02
2019-05-01T17:11:24.607Z,24.58
2019-05-01T17:13:58.031Z,23.78
2019-05-01T17:16:31.566Z,23.90
2019-05-01T17:19:05.349Z,23.76
2019-05-01T17:21:38.890Z,23.55
2019-05-01T17:24:12.415Z,21.96
2019-05-01T17:26:45.919Z,21.08
2019-05-01T17:29:19.335Z,20.65
2019-05-01T17:31:52.734Z,20.12
2019-05-01T17:34:30.482Z,20.00
2019-05-01T17:37:01.306Z,19.80
2019-05-01T17:39:34.717Z,19.82
2019-05-01T17:42:08.322Z,19.83
2019-05-01T17:44:41.840Z,19.71
2019-05-01T17:47:17.918Z,19.63
2019-05-01T17:49:50.408Z,19.57
2019-05-01T17:52:23.826Z,19.59
2019-05-01T17:54:57.320Z,19.50
2019-05-01T17:57:33.531Z,19.36
2019-05-01T18:00:26.674Z,19.20
2019-05-01T18:03:10.460Z,19.12
2019-05-01T18:05:51.508Z,18.93
2019-05-01T18:08:24.896Z,18.76
2019-05-01T18:10:58.341Z,18.60
2019-05-01T18:13:31.757Z,18.44
2019-05-01T18:16:05.439Z,18.24
2019-05-01T18:18:38.993Z,17.98
2019-05-01T18:21:12.875Z,17.77
2019-05-01T18:24:04.228Z,17.54
2019-05-01T18:26:54.662Z,17.41
2019-05-01T18:29:29.706Z,17.10
2019-05-01T18:32:08.109Z,16.89
2019-05-01T18:34:39.518Z,16.91
2019-05-01T18:37:20.969Z,16.65
2019-05-01T18:39:55.335Z,16.36
2019-05-01T18:42:28.912Z,16.03
2019-05-01T18:45:02.465Z,15.97
2019-05-01T18:47:35.883Z,15.73
2019-05-01T18:50:09.520Z,15.73
2019-05-01T18:52:43.092Z,15.42
2019-05-01T18:55:16.579Z,15.73
2019-05-01T18:57:49.992Z,15.84
2019-05-01T19:00:23.470Z,15.77
2019-05-01T19:02:59.639Z,15.59
2019-05-01T19:05:32.137Z,15.35
2019-05-01T19:08:06.088Z,15.09
2019-05-01T19:10:39.577Z,14.91
2019-05-01T19:13:13.498Z,14.79
2019-05-01T19:15:46.928Z,14.64
2019-05-01T19:18:20.511Z,14.90
2019-05-01T19:20:59.806Z,14.85
2019-05-01T19:23:29.910Z,14.84
2019-05-01T19:26:06.788Z,14.74
2019-05-01T19:28:40.386Z,14.74
2019-05-01T19:31:13.933Z,14.67
2019-05-01T19:33:47.304Z,14.65
2019-05-01T19:36:20.804Z,14.65
2019-05-01T19:38:54.365Z,14.54
2019-05-01T19:41:27.910Z,14.37
2019-05-01T19:44:01.399Z,14.04
2019-05-01T19:46:34.861Z,13.84
2019-05-01T19:49:08.315Z,13.57
2019-05-01T19:51:41.947Z,13.59
2019-05-01T19:54:15.457Z,13.68
2019-05-01T19:56:48.927Z,13.64
2019-05-01T19:59:22.370Z,13.53
2019-05-01T20:01:55.948Z,13.46
2019-05-01T20:04:29.422Z,13.54
2019-05-01T20:07:02.813Z,13.39
2019-05-01T20:09:36.352Z,13.32
2019-05-01T20:12:09.936Z,13.20
2019-05-01T20:14:43.370Z,13.12
2019-05-01T20:17:16.860Z,13.15
2019-05-01T20:19:50.301Z,12.94
2019-05-01T20:22:23.702Z,12.87
2019-05-01T20:24:57.144Z,12.75
2019-05-01T20:27:30.554Z,12.70
2019-05-01T20:30:05.848Z,12.52
2019-05-01T20:32:39.289Z,12.24
2019-05-01T20:35:12.725Z,12.13
2019-05-01T20:37:46.210Z,12.48
2019-05-01T20:40:19.797Z,12.46
2019-05-01T20:42:53.216Z,12.53
2019-05-01T20:45:26.764Z,12.37
2019-05-01T20:48:00.261Z,12.11
2019-05-01T20:50:33.685Z,11.95
2019-05-01T20:53:07.084Z,11.92
2019-05-01T20:55:42.028Z,11.94
2019-05-01T20:58:16.516Z,11.89
2019-05-01T21:00:53.579Z,11.71
2019-05-01T21:03:26.859Z,11.63
2019-05-01T21:06:02.867Z,11.49
2019-05-01T21:08:44.677Z,11.57
2019-05-01T21:11:19.816Z,11.63
2019-05-01T21:13:56.613Z,11.68
2019-05-01T21:16:28.470Z,11.72
2019-05-01T21:19:01.867Z,11.66
2019-05-01T21:21:35.377Z,11.47
2019-05-01T21:24:08.784Z,11.32
2019-05-01T21:26:43.374Z,11.37
2019-05-01T21:29:17.001Z,11.51
2019-05-01T21:31:50.408Z,11.57
2019-05-01T21:34:24.415Z,11.46
2019-05-01T21:36:58.155Z,11.43
2019-05-01T21:39:33.339Z,11.43
2019-05-01T21:42:11.593Z,11.55
2019-05-01T21:44:43.603Z,11.55
2019-05-01T21:47:17.322Z,11.40
2019-05-01T21:49:50.704Z,11.31
2019-05-01T21:52:26.795Z,11.14
2019-05-01T21:54:59.237Z,10.92
2019-05-01T21:57:37.312Z,10.91
2019-05-01T22:00:08.841Z,10.80
2019-05-01T22:02:46.441Z,10.69
2019-05-01T22:05:17.462Z,10.77
2019-05-01T22:07:50.957Z,10.73
2019-05-01T22:10:26.739Z,10.63
2019-05-01T22:12:59.833Z,10.73
2019-05-01T22:15:42.001Z,10.70
2019-05-01T22:18:17.368Z,10.74
2019-05-01T22:20:58.388Z,11.05
2019-05-01T22:23:33.433Z,11.08
2019-05-01T22:26:06.836Z,11.27
2019-05-01T22:28:44.572Z,11.38
2019-05-01T22:31:25.225Z,11.36
2019-05-01T22:34:06.425Z,11.40
2019-05-01T22:36:39.835Z,11.29
2019-05-01T22:39:13.479Z,11.43
2019-05-01T22:41:46.878Z,11.40
2019-05-01T22:44:20.381Z,11.38
2019-05-01T22:46:53.922Z,11.28
2019-05-01T22:49:27.340Z,11.32
2019-05-01T22:52:00.724Z,11.34
2019-05-01T22:54:34.149Z,11.34
2019-05-01T22:57:07.548Z,11.30
2019-05-01T22:59:40.973Z,11.34
2019-05-01T23:02:16.017Z,11.29
2019-05-01T23:04:52.126Z,11.33
2019-05-01T23:07:24.637Z,11.30
2019-05-01T23:09:59.387Z,11.23
2019-05-01T23:12:33.185Z,11.27
2019-05-01T23:15:10.199Z,11.25
2019-05-01T23:17:45.224Z,11.13
2019-05-01T23:20:18.766Z,11.09
2019-05-01T23:22:52.176Z,11.05
2019-05-01T23:25:25.667Z,10.94
2019-05-01T23:27:59.655Z,10.79
2019-05-01T23:30:34.366Z,10.65
2019-05-01T23:33:07.753Z,10.50
2019-05-01T23:35:41.178Z,10.36
2019-05-01T23:38:14.570Z,10.25
2019-05-01T23:40:50.958Z,10.19
2019-05-01T23:43:27.699Z,10.15
2019-05-01T23:45:58.268Z,10.10
2019-05-01T23:48:31.639Z,9.92
2019-05-01T23:51:05.137Z,9.82
2019-05-01T23:53:38.537Z,9.76
2019-05-01T23:56:12.028Z,9.65
2019-05-01T23:58:45.412Z,9.69
